Time;durP1;ratioP1;P1;durP2;ratioP2;P2;SDS_P1;SDS_P2;PMS_P1;PMS_P2;Temp;Humidity;BMP_temperature;BMP_pressure;BME280_temperature;BME280_humidity;BME280_pressure;Samples;Min_cycle;Max_cycle;Signal;HPM_P1;HPM_P2
2022/06/02 00:01:55;;;;;;;8.10;3.90;;;11.60;99.90;;;;;;5056378;28;20095;-79
2022/06/02 00:04:42;;;;;;;6.47;3.67;;;11.60;99.90;;;;;;5055013;28;20480;-79
2022/06/02 00:07:19;;;;;;;7.85;3.80;;;11.50;99.90;;;;;;5055016;28;20044;-79
2022/06/02 00:10:01;;;;;;;7.80;4.00;;;11.50;99.90;;;;;;5055470;28;20041;-79
2022/06/02 00:12:54;;;;;;;8.00;4.22;;;11.50;99.90;;;;;;5056134;28;20535;-79
2022/06/02 00:15:35;;;;;;;9.90;3.88;;;11.50;99.90;;;;;;5054147;28;20484;-79
2022/06/02 00:18:19;;;;;;;9.00;3.95;;;11.50;99.90;;;;;;5055978;28;20048;-79
2022/06/02 00:21:10;;;;;;;9.15;4.40;;;11.50;99.90;;;;;;5054444;28;20159;-79
2022/06/02 00:23:41;;;;;;;8.43;3.83;;;11.50;99.90;;;;;;5054693;28;20123;-79
2022/06/02 00:26:45;;;;;;;7.43;3.70;;;11.50;99.90;;;;;;5055244;28;20119;-79
2022/06/02 00:29:38;;;;;;;8.88;4.03;;;11.50;99.90;;;;;;5055669;28;20057;-79
2022/06/02 00:32:38;;;;;;;7.65;3.58;;;11.60;99.90;;;;;;5054193;28;20056;-79
2022/06/02 00:35:19;;;;;;;7.22;3.90;;;11.50;99.90;;;;;;5054516;28;20045;-79
2022/06/02 00:37:51;;;;;;;6.60;3.88;;;11.50;99.90;;;;;;5054320;28;20365;-79
2022/06/02 00:40:17;;;;;;;7.72;3.67;;;11.50;99.90;;;;;;5054152;28;20084;-79
2022/06/02 00:43:20;;;;;;;8.32;3.50;;;11.50;99.90;;;;;;5054286;28;20104;-79
2022/06/02 00:45:55;;;;;;;6.93;3.40;;;11.50;99.90;;;;;;5054305;28;20045;-78
2022/06/02 00:48:28;;;;;;;13.60;4.35;;;11.50;99.90;;;;;;5055046;28;20049;-79
2022/06/02 00:51:07;;;;;;;6.95;4.00;;;11.50;99.90;;;;;;5053897;28;20111;-77
2022/06/02 00:57:32;;;;;;;9.57;3.80;;;11.50;99.90;;;;;;5054592;28;20564;-78
2022/06/02 01:00:16;;;;;;;7.45;3.58;;;11.50;99.90;;;;;;5045086;28;20488;-79
2022/06/02 01:02:59;;;;;;;8.57;3.40;;;11.50;99.90;;;;;;5054113;28;20033;-79
2022/06/02 01:05:28;;;;;;;6.68;3.05;;;11.50;99.90;;;;;;5055065;28;20056;-79
2022/06/02 01:08:31;;;;;;;7.18;3.08;;;11.50;99.90;;;;;;5054749;28;20045;-79
2022/06/02 01:12:00;;;;;;;5.75;2.70;;;11.50;99.90;;;;;;5053747;28;20049;-79
2022/06/02 01:14:47;;;;;;;6.72;2.80;;;11.50;99.90;;;;;;5016460;28;20485;-78
2022/06/02 01:17:56;;;;;;;5.50;3.10;;;11.60;99.90;;;;;;5015639;28;20436;-78
2022/06/02 01:20:29;;;;;;;7.97;2.85;;;11.60;99.90;;;;;;5049756;28;20061;-79
2022/06/02 01:23:09;;;;;;;;;;;11.60;99.90;;;;;;5055101;28;20053;-79
2022/06/02 01:26:11;;;;;;;6.90;3.42;;;11.60;99.90;;;;;;5054715;28;20334;-79
2022/06/02 01:28:59;;;;;;;6.97;2.67;;;11.70;99.90;;;;;;5052840;28;20139;-79
2022/06/02 01:31:34;;;;;;;12.15;3.53;;;11.70;99.90;;;;;;5054551;28;20088;-79
2022/06/02 01:34:12;;;;;;;5.13;2.67;;;11.60;99.90;;;;;;5053496;28;20123;-79
2022/06/02 01:37:23;;;;;;;5.45;2.50;;;11.60;99.90;;;;;;5054534;28;20048;-79
2022/06/02 01:40:09;;;;;;;5.72;2.60;;;11.50;99.90;;;;;;4997507;28;20092;-79
2022/06/02 01:42:56;;;;;;;7.07;3.33;;;11.50;99.90;;;;;;5033277;28;20045;-79
2022/06/02 01:45:27;;;;;;;4.43;2.42;;;11.50;99.90;;;;;;5033104;28;20049;-78
2022/06/02 01:48:06;;;;;;;7.25;2.83;;;11.50;99.90;;;;;;5039277;28;20041;-78
2022/06/02 01:50:41;;;;;;;6.78;2.90;;;11.40;99.90;;;;;;5050224;28;20094;-78
2022/06/02 01:53:23;;;;;;;5.40;3.60;;;11.40;99.90;;;;;;5052545;28;20057;-78
2022/06/02 01:55:51;;;;;;;7.10;2.88;;;11.40;99.90;;;;;;5052771;28;20109;-78
2022/06/02 01:58:32;;;;;;;7.47;3.88;;;11.40;99.90;;;;;;5052363;28;20059;-78
2022/06/02 02:01:26;;;;;;;9.13;3.38;;;11.40;99.90;;;;;;5032901;28;20060;-78
2022/06/02 02:04:29;;;;;;;7.28;4.03;;;11.40;99.90;;;;;;5042502;28;20084;-78
2022/06/02 02:07:30;;;;;;;5.95;2.90;;;11.40;99.90;;;;;;5053003;28;20116;-78
2022/06/02 02:09:58;;;;;;;6.75;3.40;;;11.40;99.90;;;;;;5019404;28;20425;-79
2022/06/02 02:12:38;;;;;;;4.95;3.10;;;11.40;99.90;;;;;;5033984;28;20042;-78
2022/06/02 02:15:17;;;;;;;5.22;3.15;;;11.40;99.90;;;;;;5032867;28;20087;-78
2022/06/02 02:18:11;;;;;;;7.78;3.10;;;11.30;99.90;;;;;;5032892;28;20377;-79
2022/06/02 02:20:53;;;;;;;7.65;3.70;;;11.30;99.90;;;;;;5047359;28;20052;-77
2022/06/02 02:23:42;;;;;;;6.45;3.35;;;11.30;99.90;;;;;;5053706;28;20045;-78
2022/06/02 02:26:51;;;;;;;6.78;3.40;;;11.40;99.90;;;;;;5052449;28;20445;-77
2022/06/02 02:29:30;;;;;;;7.25;3.90;;;11.30;99.90;;;;;;5032310;28;20087;-78
2022/06/02 02:32:13;;;;;;;9.38;3.92;;;11.30;99.90;;;;;;5053628;28;20488;-78
2022/06/02 02:35:16;;;;;;;9.32;3.70;;;11.30;99.90;;;;;;5052401;28;20140;-77
2022/06/02 02:37:58;;;;;;;8.15;3.40;;;11.30;99.90;;;;;;5021599;28;20053;-78
2022/06/02 02:40:38;;;;;;;10.07;3.60;;;11.30;99.90;;;;;;5032710;28;20537;-79
2022/06/02 02:43:23;;;;;;;6.97;3.45;;;11.30;99.90;;;;;;5049450;28;20053;-79
2022/06/02 02:45:57;;;;;;;9.07;4.03;;;11.20;99.90;;;;;;5052369;28;20563;-79
2022/06/02 02:49:00;;;;;;;9.32;5.07;;;11.10;99.90;;;;;;5052509;28;20080;-79
2022/06/02 02:52:05;;;;;;;10.65;5.35;;;11.00;99.90;;;;;;5051640;28;20057;-79
2022/06/02 02:54:49;;;;;;;11.93;7.50;;;10.80;99.90;;;;;;5033502;28;20051;-79
2022/06/02 02:57:27;;;;;;;13.88;8.15;;;10.60;99.90;;;;;;5043713;28;20146;-79
2022/06/02 03:00:09;;;;;;;14.90;8.20;;;10.50;99.90;;;;;;5051689;28;20410;-79
2022/06/02 03:03:03;;;;;;;14.65;8.82;;;10.40;99.90;;;;;;5044225;28;20064;-79
2022/06/02 03:05:41;;;;;;;12.85;7.70;;;10.30;99.90;;;;;;5052169;28;20068;-78
2022/06/02 03:08:39;;;;;;;12.30;7.70;;;10.20;99.90;;;;;;5032085;28;20049;-78
2022/06/02 03:11:40;;;;;;;15.23;7.93;;;10.20;99.90;;;;;;5050351;28;20056;-78
2022/06/02 03:14:18;;;;;;;16.75;8.30;;;10.10;99.90;;;;;;5051159;28;20512;-78
2022/06/02 03:16:49;;;;;;;15.43;7.90;;;10.10;99.90;;;;;;5051973;28;20087;-78
2022/06/02 03:19:26;;;;;;;18.20;8.07;;;10.00;99.90;;;;;;5051606;28;20503;-78
2022/06/02 03:21:53;;;;;;;15.00;8.68;;;10.00;99.90;;;;;;5051204;28;20451;-78
2022/06/02 03:24:38;;;;;;;16.88;8.32;;;10.00;99.90;;;;;;5052664;28;20047;-78
2022/06/02 03:27:16;;;;;;;18.30;8.40;;;10.00;99.90;;;;;;5051760;28;20102;-78
2022/06/02 03:29:59;;;;;;;15.95;8.40;;;10.00;99.90;;;;;;5051664;28;20045;-78
2022/06/02 03:32:51;;;;;;;16.15;8.85;;;9.90;99.90;;;;;;5051242;28;20056;-78
2022/06/02 03:35:40;;;;;;;16.30;8.73;;;9.90;99.90;;;;;;5051617;28;20071;-78
2022/06/02 03:38:27;;;;;;;19.17;9.57;;;9.90;99.90;;;;;;5051765;28;20037;-78
2022/06/02 03:41:08;;;;;;;13.93;7.38;;;9.90;99.90;;;;;;5055386;28;20481;-78
2022/06/02 03:43:53;;;;;;;13.95;7.78;;;9.90;99.90;;;;;;5035164;28;20045;-78
2022/06/02 03:46:44;;;;;;;16.40;7.05;;;9.90;99.90;;;;;;5036378;28;20049;-78
2022/06/02 03:49:32;;;;;;;12.68;5.70;;;9.90;99.90;;;;;;5035210;28;20046;-78
2022/06/02 03:52:06;;;;;;;15.35;6.40;;;10.00;99.90;;;;;;5041629;28;20053;-78
2022/06/02 03:54:43;;;;;;;12.13;6.55;;;10.00;99.90;;;;;;5039309;28;20061;-79
2022/06/02 03:57:56;;;;;;;13.95;6.63;;;10.00;99.90;;;;;;5054854;28;20045;-79
2022/06/02 04:00:32;;;;;;;15.25;7.90;;;10.00;99.90;;;;;;5017513;28;20053;-78
2022/06/02 04:03:07;;;;;;;19.50;8.23;;;10.00;99.90;;;;;;5051305;28;20128;-78
2022/06/02 04:06:03;;;;;;;15.70;7.10;;;10.00;99.90;;;;;;5054950;28;20094;-78
2022/06/02 04:08:47;;;;;;;14.43;6.72;;;10.00;99.90;;;;;;5054829;28;20048;-78
2022/06/02 04:15:06;;;;;;;15.32;7.45;;;10.00;99.90;;;;;;5054396;28;20511;-78
2022/06/02 04:17:44;;;;;;;17.38;7.50;;;10.10;99.90;;;;;;5039623;28;20049;-78
2022/06/02 04:20:43;;;;;;;22.45;7.45;;;10.20;99.90;;;;;;5054696;28;20510;-78
2022/06/02 04:23:24;;;;;;;15.68;7.78;;;10.30;99.90;;;;;;5054205;28;20059;-78
2022/06/02 04:26:19;;;;;;;16.85;6.82;;;10.40;99.90;;;;;;5054290;28;20044;-78
2022/06/02 04:28:54;;;;;;;11.35;4.00;;;10.60;99.90;;;;;;5054404;28;20492;-78
2022/06/02 04:31:28;;;;;;;10.38;4.70;;;10.90;99.90;;;;;;5055355;28;20045;-78
2022/06/02 04:34:32;;;;;;;15.25;4.13;;;11.10;99.90;;;;;;5053993;28;20056;-78
2022/06/02 04:37:07;;;;;;;14.95;5.05;;;11.30;99.90;;;;;;5052068;28;20109;-78
2022/06/02 04:39:51;;;;;;;11.00;4.35;;;11.50;99.90;;;;;;5034110;28;20374;-78
2022/06/02 04:42:29;;;;;;;11.70;4.47;;;11.70;99.90;;;;;;5034070;28;20049;-78
2022/06/02 04:45:39;;;;;;;14.18;5.15;;;11.80;99.90;;;;;;5049630;28;20076;-78
2022/06/02 04:48:24;;;;;;;14.18;4.43;;;12.00;99.90;;;;;;5054152;28;20056;-78
2022/06/02 04:50:54;;;;;;;9.57;3.53;;;12.10;99.90;;;;;;5053166;28;20045;-78
2022/06/02 04:53:44;;;;;;;11.68;4.03;;;12.10;99.90;;;;;;5054503;28;20484;-78
2022/06/02 04:56:19;;;;;;;12.75;4.18;;;12.10;99.90;;;;;;5053797;28;20186;-78
2022/06/02 04:59:10;;;;;;;12.57;3.97;;;12.10;99.90;;;;;;5053841;28;20521;-78
2022/06/02 05:01:47;;;;;;;13.65;4.00;;;12.00;99.90;;;;;;5055143;28;20119;-78
2022/06/02 05:04:41;;;;;;;7.63;4.03;;;12.00;99.90;;;;;;5054773;28;20045;-78
2022/06/02 05:07:25;;;;;;;;;;;12.10;99.90;;;;;;5054260;28;20511;-78
2022/06/02 05:10:07;;;;;;;17.60;3.58;;;12.20;99.90;;;;;;5054657;28;20376;-79
2022/06/02 05:12:48;;;;;;;14.00;4.57;;;12.20;99.90;;;;;;5054629;28;20091;-79
2022/06/02 05:15:42;;;;;;;12.35;4.57;;;12.30;99.90;;;;;;5054640;28;20051;-79
2022/06/02 05:19:04;;;;;;;14.70;4.38;;;12.50;99.90;;;;;;5054812;28;20052;-79
2022/06/02 05:21:56;;;;;;;9.43;3.92;;;12.50;99.90;;;;;;5054775;28;20045;-79
2022/06/02 05:25:19;;;;;;;12.20;3.60;;;12.70;99.90;;;;;;5054248;28;20056;-80
2022/06/02 05:28:02;;;;;;;8.93;3.80;;;12.70;99.90;;;;;;5011228;28;20429;-79
2022/06/02 05:30:29;;;;;;;;;;;12.70;99.90;;;;;;5013254;28;20077;-78
2022/06/02 05:33:12;;;;;;;10.57;4.15;;;12.70;99.90;;;;;;5045392;28;19925;-78
2022/06/02 05:36:05;;;;;;;10.82;3.50;;;12.60;99.90;;;;;;5053915;28;20061;-78
2022/06/02 05:38:55;;;;;;;10.40;3.90;;;12.60;99.90;;;;;;5044997;28;20041;-77
2022/06/02 05:41:58;;;;;;;14.55;3.33;;;12.70;99.90;;;;;;5052771;28;20407;-77
2022/06/02 05:44:47;;;;;;;8.20;3.72;;;12.90;99.90;;;;;;5052992;28;20103;-77
2022/06/02 05:47:31;;;;;;;10.55;3.83;;;13.00;99.90;;;;;;5052721;28;20053;-78
2022/06/02 05:50:36;;;;;;;9.70;3.55;;;13.20;99.90;;;;;;5052661;28;20091;-79
2022/06/02 05:53:32;;;;;;;6.18;3.20;;;13.30;99.90;;;;;;4995653;28;20542;-79
2022/06/02 05:56:07;;;;;;;8.90;3.17;;;13.30;99.90;;;;;;4993309;28;20050;-79
2022/06/02 05:58:53;;;;;;;8.50;3.67;;;13.20;99.90;;;;;;5021453;28;20052;-78
2022/06/02 06:01:53;;;;;;;9.30;3.25;;;13.30;99.90;;;;;;5052749;28;20045;-79
2022/06/02 06:04:41;;;;;;;11.88;4.07;;;13.50;99.90;;;;;;5051683;28;20190;-79
2022/06/02 06:07:26;;;;;;;14.35;4.32;;;13.70;99.90;;;;;;5053024;28;20511;-79
2022/06/02 06:10:06;;;;;;;10.25;3.55;;;13.80;99.90;;;;;;5050956;28;20430;-78
2022/06/02 06:12:41;;;;;;;14.80;4.05;;;13.70;99.90;;;;;;5051103;28;20544;-79
2022/06/02 06:15:29;;;;;;;9.00;3.78;;;14.00;99.90;;;;;;5047174;28;20404;-78
2022/06/02 06:18:08;;;;;;;8.48;3.22;;;14.00;99.90;;;;;;5044733;28;20443;-78
2022/06/02 06:20:51;;;;;;;9.02;3.55;;;14.00;99.90;;;;;;5053644;28;20041;-78
2022/06/02 06:23:32;;;;;;;11.90;3.92;;;14.10;99.90;;;;;;5052066;28;20056;-78
2022/06/02 06:26:04;;;;;;;7.05;3.47;;;14.10;99.90;;;;;;5053271;28;20060;-78
2022/06/02 06:28:40;;;;;;;11.85;3.75;;;14.10;99.90;;;;;;5051976;28;20041;-77
2022/06/02 06:31:24;;;;;;;7.75;3.25;;;14.00;99.90;;;;;;5053150;28;20045;-78
2022/06/02 06:34:02;;;;;;;10.90;3.90;;;14.10;99.90;;;;;;5051147;28;20483;-78
2022/06/02 06:36:46;;;;;;;9.18;3.50;;;14.10;99.90;;;;;;5053328;28;20045;-78
2022/06/02 06:39:34;;;;;;;8.60;4.18;;;14.20;99.90;;;;;;5052174;28;20071;-78
2022/06/02 06:42:25;;;;;;;11.15;3.30;;;14.20;99.90;;;;;;5053479;28;20476;-79
2022/06/02 06:45:07;;;;;;;8.93;3.08;;;14.20;99.90;;;;;;5052311;28;20132;-78
2022/06/02 06:47:51;;;;;;;7.38;2.83;;;14.30;99.90;;;;;;5053442;28;20049;-79
2022/06/02 06:50:32;;;;;;;7.82;3.42;;;14.20;99.90;;;;;;5053192;28;20045;-78
2022/06/02 06:53:18;;;;;;;8.18;3.03;;;14.10;99.90;;;;;;5053031;28;20056;-79
2022/06/02 06:56:17;;;;;;;13.55;4.32;;;14.20;99.90;;;;;;5053370;28;20052;-78
2022/06/02 06:59:20;;;;;;;9.07;3.00;;;14.30;99.90;;;;;;5053304;28;20065;-79
2022/06/02 07:02:12;;;;;;;7.88;2.85;;;14.20;99.90;;;;;;5052042;28;20132;-78
2022/06/02 07:04:48;;;;;;;9.18;3.30;;;14.20;99.90;;;;;;5041979;28;20052;-79
2022/06/02 07:07:35;;;;;;;13.55;3.15;;;14.20;99.90;;;;;;5052067;28;20148;-79
2022/06/02 07:10:07;;;;;;;9.98;4.07;;;14.10;99.90;;;;;;5051817;28;20045;-78
2022/06/02 07:12:50;;;;;;;8.57;3.08;;;14.40;99.90;;;;;;5051714;28;20049;-78
2022/06/02 07:15:39;;;;;;;9.00;2.90;;;14.60;99.90;;;;;;5055034;28;20049;-78
2022/06/02 07:18:42;;;;;;;7.22;2.97;;;14.50;99.90;;;;;;5057049;28;20045;-79
2022/06/02 07:21:42;;;;;;;7.78;3.50;;;14.60;99.90;;;;;;5055468;28;20052;-79
2022/06/02 07:24:32;;;;;;;6.22;2.65;;;14.60;99.90;;;;;;5055792;28;20472;-79
2022/06/02 07:27:01;;;;;;;8.98;3.72;;;14.70;99.90;;;;;;5055526;28;20049;-79
2022/06/02 07:29:57;;;;;;;7.50;4.13;;;14.60;99.90;;;;;;5055179;28;20439;-79
2022/06/02 07:33:02;;;;;;;7.47;2.83;;;14.60;99.90;;;;;;5055514;28;20098;-79
2022/06/02 07:35:49;;;;;;;7.65;3.00;;;14.70;99.90;;;;;;5056544;28;20128;-79
2022/06/02 07:38:48;;;;;;;6.97;2.70;;;14.80;99.90;;;;;;5056646;28;20063;-79
2022/06/02 07:41:37;;;;;;;12.20;2.80;;;15.00;99.90;;;;;;5055502;28;20045;-79
2022/06/02 07:44:24;;;;;;;7.82;2.78;;;15.10;99.90;;;;;;5055271;28;20124;-79
2022/06/02 07:47:11;;;;;;;9.25;2.72;;;15.00;99.90;;;;;;5055285;28;20055;-79
2022/06/02 07:50:15;;;;;;;7.60;2.72;;;15.00;99.90;;;;;;5055053;28;20045;-79
2022/06/02 07:53:12;;;;;;;8.00;2.70;;;15.00;99.90;;;;;;5052762;28;20075;-79
2022/06/02 07:56:01;;;;;;;7.57;2.58;;;15.00;99.90;;;;;;5055116;28;20087;-79
2022/06/02 07:58:42;;;;;;;8.32;2.78;;;15.00;99.90;;;;;;5056357;28;20041;-79
2022/06/02 08:01:33;;;;;;;6.55;3.08;;;15.00;99.90;;;;;;5056208;28;20483;-79
2022/06/02 08:03:58;;;;;;;4.68;2.72;;;15.00;99.90;;;;;;5056334;28;20072;-79
2022/06/02 08:06:37;;;;;;;9.35;2.88;;;15.20;99.90;;;;;;5056232;28;20388;-79
2022/06/02 08:09:03;;;;;;;8.68;3.03;;;15.20;99.90;;;;;;5054984;28;20503;-79
2022/06/02 08:11:55;;;;;;;10.05;3.75;;;15.40;99.90;;;;;;5056140;28;20048;-79
2022/06/02 08:14:31;;;;;;;6.00;2.65;;;15.30;99.90;;;;;;5054677;28;20052;-79
2022/06/02 08:17:08;;;;;;;5.70;2.63;;;15.40;99.90;;;;;;5055659;28;20495;-79
2022/06/02 08:19:39;;;;;;;8.02;2.20;;;15.50;99.90;;;;;;5054463;28;20044;-79
2022/06/02 08:22:11;;;;;;;5.60;2.85;;;15.50;99.90;;;;;;5055904;28;20041;-79
2022/06/02 08:25:07;;;;;;;9.20;2.88;;;15.60;99.90;;;;;;5055581;28;20481;-79
2022/06/02 08:28:11;;;;;;;8.38;2.88;;;15.60;99.90;;;;;;5054157;28;20073;-79
2022/06/02 08:30:42;;;;;;;6.38;2.85;;;15.50;99.90;;;;;;5052810;28;20075;-79
2022/06/02 08:33:41;;;;;;;5.53;2.67;;;15.60;99.90;;;;;;5055471;28;20480;-79
2022/06/02 08:36:07;;;;;;;5.60;2.63;;;15.70;99.90;;;;;;5054186;28;20053;-79
2022/06/02 08:39:00;;;;;;;7.30;3.60;;;15.70;99.90;;;;;;5054099;28;20037;-79
2022/06/02 08:41:55;;;;;;;8.82;3.13;;;15.70;99.90;;;;;;5055428;28;20049;-79
2022/06/02 08:44:39;;;;;;;7.18;3.35;;;15.90;99.90;;;;;;5054320;28;20036;-79
2022/06/02 08:47:24;;;;;;;8.02;3.30;;;16.10;99.90;;;;;;5055249;28;20110;-79
2022/06/02 08:50:10;;;;;;;7.10;2.95;;;16.40;99.90;;;;;;5055305;28;20135;-79
2022/06/02 08:53:16;;;;;;;7.38;2.80;;;16.40;99.90;;;;;;5053875;28;20091;-79
2022/06/02 08:56:19;;;;;;;7.75;2.47;;;16.30;99.90;;;;;;5055172;28;20091;-79
2022/06/02 08:59:18;;;;;;;5.13;3.03;;;16.60;99.90;;;;;;5055293;28;20094;-79
2022/06/02 09:01:59;;;;;;;8.98;2.88;;;16.70;99.90;;;;;;5053701;28;20051;-79
2022/06/02 09:04:35;;;;;;;6.72;3.00;;;16.70;99.90;;;;;;5053953;28;20041;-79
2022/06/02 09:07:19;;;;;;;13.63;3.47;;;16.70;99.90;;;;;;5054931;28;20496;-79
2022/06/02 09:09:54;;;;;;;14.25;3.25;;;16.70;99.90;;;;;;5054630;28;20484;-79
2022/06/02 09:12:54;;;;;;;6.97;3.50;;;16.70;99.90;;;;;;5053784;28;20614;-79
2022/06/02 09:15:57;;;;;;;7.50;3.47;;;16.70;99.90;;;;;;5053075;28;20045;-79
2022/06/02 09:18:41;;;;;;;7.95;3.28;;;16.70;99.90;;;;;;5053350;28;20496;-79
2022/06/02 09:21:17;;;;;;;8.65;3.70;;;16.60;99.90;;;;;;5053525;28;20465;-79
2022/06/02 09:23:49;;;;;;;10.38;3.08;;;16.70;99.90;;;;;;5054481;28;20048;-79
2022/06/02 09:26:46;;;;;;;8.02;3.22;;;16.70;99.90;;;;;;5053244;28;20044;-79
2022/06/02 09:29:24;;;;;;;7.95;2.85;;;16.80;99.90;;;;;;5047576;28;20049;-79
2022/06/02 09:32:08;;;;;;;7.78;2.95;;;16.60;99.90;;;;;;5054666;28;20052;-79
2022/06/02 09:34:41;;;;;;;10.68;3.53;;;16.70;99.90;;;;;;5053013;28;20049;-79
2022/06/02 09:37:25;;;;;;;9.23;2.92;;;16.80;99.90;;;;;;5054231;28;20048;-79
2022/06/02 09:40:06;;;;;;;6.80;3.65;;;17.00;99.90;;;;;;5053200;28;20080;-79
2022/06/02 09:43:19;;;;;;;9.88;3.55;;;17.10;99.90;;;;;;5052925;28;20041;-79
2022/06/02 09:45:45;;;;;;;7.05;3.03;;;17.10;99.90;;;;;;5052825;28;20053;-79
2022/06/02 09:48:41;;;;;;;9.80;3.38;;;17.20;99.90;;;;;;5054061;28;20053;-79
2022/06/02 09:51:21;;;;;;;7.78;3.40;;;17.20;99.90;;;;;;5053999;28;20498;-79
2022/06/02 09:54:10;;;;;;;7.05;3.20;;;17.50;99.90;;;;;;5053822;28;20380;-79
2022/06/02 09:57:02;;;;;;;9.32;3.53;;;17.40;99.90;;;;;;5054209;28;20036;-79
2022/06/02 09:59:38;;;;;;;6.18;3.10;;;17.30;99.90;;;;;;5054010;28;20037;-79
2022/06/02 10:02:29;;;;;;;6.68;3.00;;;17.50;99.90;;;;;;5052883;28;20068;-79
2022/06/02 10:05:14;;;;;;;7.18;3.13;;;17.30;99.90;;;;;;5052771;28;20049;-79
2022/06/02 10:07:46;;;;;;;6.97;2.85;;;17.30;99.90;;;;;;5052742;28;20127;-79
2022/06/02 10:10:21;;;;;;;9.45;3.20;;;17.50;99.90;;;;;;5052493;28;20155;-79
2022/06/02 10:13:18;;;;;;;6.60;2.92;;;17.90;99.90;;;;;;5052679;28;20048;-79
2022/06/02 10:16:16;;;;;;;10.82;3.00;;;18.30;99.90;;;;;;5052623;28;20400;-79
2022/06/02 10:19:03;;;;;;;9.05;3.25;;;18.00;99.90;;;;;;5052384;28;20049;-79
2022/06/02 10:21:31;;;;;;;8.70;3.65;;;18.20;99.90;;;;;;5052287;28;20103;-79
2022/06/02 10:24:33;;;;;;;9.32;3.20;;;18.50;99.90;;;;;;5052482;28;20045;-79
2022/06/02 10:27:23;;;;;;;7.88;3.10;;;18.60;99.90;;;;;;5052432;28;20052;-79
2022/06/02 10:30:22;;;;;;;5.65;2.67;;;18.70;99.90;;;;;;5053567;28;20098;-79
2022/06/02 10:33:02;;;;;;;11.82;4.05;;;18.80;99.90;;;;;;5052171;28;20049;-79
2022/06/02 10:35:37;;;;;;;8.27;3.05;;;19.00;99.90;;;;;;5052661;28;20071;-79
2022/06/02 10:38:24;;;;;;;8.40;3.33;;;19.20;99.90;;;;;;5052085;28;20041;-79
2022/06/02 10:40:50;;;;;;;7.47;2.90;;;19.00;99.90;;;;;;5052414;28;20083;-79
2022/06/02 10:43:37;;;;;;;9.27;2.80;;;19.00;99.90;;;;;;5052120;28;20049;-79
2022/06/02 10:46:26;;;;;;;9.60;3.30;;;18.90;99.90;;;;;;5051965;28;20045;-79
2022/06/02 10:49:15;;;;;;;6.28;2.75;;;19.00;99.90;;;;;;5052941;28;20048;-79
2022/06/02 10:52:24;;;;;;;6.00;2.80;;;19.00;99.90;;;;;;5056000;28;20510;-79
2022/06/02 10:55:21;;;;;;;9.65;3.10;;;19.00;99.90;;;;;;5056164;28;20480;-79
2022/06/02 10:57:56;;;;;;;7.50;3.10;;;19.00;99.90;;;;;;5056076;28;20040;-79
2022/06/02 11:01:06;;;;;;;9.73;3.30;;;19.10;99.90;;;;;;5056051;28;20119;-79
2022/06/02 11:03:44;;;;;;;9.85;3.28;;;19.20;99.90;;;;;;5056132;28;20511;-79
2022/06/02 11:06:43;;;;;;;8.05;3.50;;;19.40;99.90;;;;;;5057353;28;20084;-77
2022/06/02 11:09:39;;;;;;;8.43;3.08;;;19.40;99.90;;;;;;5056964;28;20045;-78
2022/06/02 11:12:46;;;;;;;8.85;3.28;;;19.40;99.90;;;;;;5057215;28;20080;-78
2022/06/02 11:15:23;;;;;;;9.23;3.83;;;19.50;99.90;;;;;;5056862;28;20370;-78
2022/06/02 11:18:12;;;;;;;6.65;2.58;;;19.50;99.90;;;;;;5057111;28;20052;-78
2022/06/02 11:21:10;;;;;;;7.07;3.42;;;19.40;99.90;;;;;;5055992;28;20098;-78
2022/06/02 11:23:36;;;;;;;9.55;2.78;;;19.50;99.90;;;;;;5051805;28;20139;-78
2022/06/02 11:26:19;;;;;;;11.32;3.17;;;19.30;99.90;;;;;;5056995;28;20449;-78
2022/06/02 11:29:10;;;;;;;7.05;3.00;;;19.40;99.90;;;;;;5055878;28;20056;-78
2022/06/02 11:31:38;;;;;;;11.70;3.42;;;19.50;99.90;;;;;;5055682;28;20110;-76
2022/06/02 11:34:19;;;;;;;8.45;3.08;;;19.40;99.90;;;;;;5056508;28;20142;-81
2022/06/02 11:37:05;;;;;;;8.07;3.15;;;19.20;99.90;;;;;;5055497;28;20132;-79
2022/06/02 11:39:31;;;;;;;14.85;3.88;;;19.30;99.90;;;;;;5055493;28;20045;-79
2022/06/02 11:42:20;;;;;;;12.23;3.35;;;19.40;99.90;;;;;;5055225;28;20044;-79
2022/06/02 11:45:07;;;;;;;9.10;3.50;;;19.40;99.90;;;;;;5056641;28;20044;-79
2022/06/02 11:48:06;;;;;;;13.60;3.70;;;19.60;99.90;;;;;;5055059;28;20052;-77
2022/06/02 11:50:33;;;;;;;9.55;3.20;;;19.50;99.90;;;;;;5055096;28;20399;-78
2022/06/02 11:53:04;;;;;;;12.40;3.95;;;19.50;99.90;;;;;;5056348;28;20557;-78
2022/06/02 11:55:38;;;;;;;8.30;3.53;;;19.60;99.90;;;;;;5055343;28;20044;-78
2022/06/02 11:58:28;;;;;;;12.60;3.63;;;19.70;99.90;;;;;;5056658;28;20311;-78
2022/06/02 12:01:31;;;;;;;9.70;3.95;;;19.60;99.90;;;;;;5055046;28;20061;-78
2022/06/02 12:04:25;;;;;;;9.27;3.17;;;19.90;99.90;;;;;;5056176;28;20045;-79
2022/06/02 12:07:15;;;;;;;11.18;3.60;;;19.80;99.90;;;;;;5056093;28;20037;-79
2022/06/02 12:10:07;;;;;;;13.57;3.67;;;19.80;99.90;;;;;;5054803;28;20075;-79
2022/06/02 12:12:51;;;;;;;13.23;3.40;;;19.50;99.90;;;;;;5056069;28;20041;-79
2022/06/02 12:15:44;;;;;;;7.93;3.40;;;19.60;99.90;;;;;;5054816;28;20095;-79
2022/06/02 12:18:38;;;;;;;7.70;3.30;;;19.70;99.90;;;;;;5054589;28;20083;-79
2022/06/02 12:21:22;;;;;;;8.57;3.05;;;19.50;99.90;;;;;;5054471;28;20088;-79
2022/06/02 12:24:09;;;;;;;8.52;3.33;;;19.60;99.90;;;;;;5054370;28;20044;-79
2022/06/02 12:26:53;;;;;;;10.77;3.40;;;19.70;99.90;;;;;;5055877;28;20062;-79
2022/06/02 12:29:55;;;;;;;10.73;3.72;;;19.70;99.90;;;;;;5054368;28;20484;-79
2022/06/02 12:32:24;;;;;;;14.55;3.97;;;19.50;99.90;;;;;;5054493;28;20480;-79
2022/06/02 12:35:03;;;;;;;9.52;3.25;;;19.40;99.90;;;;;;5055673;28;20041;-79
2022/06/02 12:37:54;;;;;;;14.02;3.70;;;19.40;99.90;;;;;;5054415;28;20392;-79
2022/06/02 12:40:22;;;;;;;10.88;3.10;;;19.40;99.90;;;;;;5055500;28;20049;-79
2022/06/02 12:43:27;;;;;;;10.00;3.40;;;19.60;99.90;;;;;;5055268;28;20394;-79
2022/06/02 12:46:17;;;;;;;9.85;3.42;;;19.40;99.90;;;;;;5054014;28;20599;-79
2022/06/02 12:49:07;;;;;;;13.45;3.78;;;19.30;99.90;;;;;;5054296;28;20554;-79
2022/06/02 12:51:48;;;;;;;8.20;3.60;;;19.30;99.90;;;;;;5053727;28;20045;-79
2022/06/02 12:54:51;;;;;;;7.70;4.10;;;19.40;99.90;;;;;;5053916;28;20056;-79
2022/06/02 12:57:35;;;;;;;;;;;19.60;99.90;;;;;;5054211;28;20048;-78
2022/06/02 13:00:19;;;;;;;10.05;3.55;;;19.50;99.90;;;;;;5053790;28;19921;-79
2022/06/02 13:03:10;;;;;;;15.25;3.88;;;19.50;99.90;;;;;;5055086;28;20045;-79
2022/06/02 13:06:14;;;;;;;10.32;3.58;;;19.60;99.90;;;;;;5044716;28;20455;-79
2022/06/02 13:09:08;;;;;;;14.32;4.60;;;19.70;99.90;;;;;;5053794;28;20048;-79
2022/06/02 13:11:56;;;;;;;14.48;4.70;;;19.60;99.90;;;;;;5052959;28;20051;-79
2022/06/02 13:14:47;;;;;;;11.38;4.13;;;19.50;99.90;;;;;;5053731;28;20123;-79
2022/06/02 13:17:50;;;;;;;11.55;3.83;;;19.40;99.90;;;;;;5053602;28;20063;-79
2022/06/02 13:20:35;;;;;;;12.73;3.92;;;19.40;99.90;;;;;;5054688;28;20049;-79
2022/06/02 13:23:20;;;;;;;14.10;3.80;;;19.30;99.90;;;;;;5053363;28;20477;-79
2022/06/02 13:26:08;;;;;;;12.15;4.50;;;19.20;99.90;;;;;;5053223;28;20052;-79
2022/06/02 13:28:49;;;;;;;9.95;4.57;;;19.50;99.90;;;;;;5053496;28;20052;-79
2022/06/02 13:31:42;;;;;;;11.43;4.38;;;19.50;99.90;;;;;;5053129;28;20052;-79
2022/06/02 13:34:17;;;;;;;10.43;3.80;;;19.40;99.90;;;;;;5053419;28;20480;-79
2022/06/02 13:36:45;;;;;;;6.72;3.50;;;19.40;99.90;;;;;;5053302;28;20107;-79
2022/06/02 13:39:49;;;;;;;20.23;4.25;;;19.40;99.90;;;;;;5053233;28;20055;-79
2022/06/02 13:42:42;;;;;;;13.48;4.20;;;19.20;99.90;;;;;;5054224;28;20081;-79
2022/06/02 13:45:10;;;;;;;9.43;4.30;;;18.90;99.90;;;;;;5054212;28;20388;-79
2022/06/02 13:47:45;;;;;;;8.98;3.80;;;19.00;99.90;;;;;;5054268;28;20041;-78
2022/06/02 13:50:38;;;;;;;8.32;3.78;;;19.10;99.90;;;;;;5052782;28;20048;-78
2022/06/02 13:53:25;;;;;;;9.82;4.38;;;19.10;99.90;;;;;;5052670;28;20049;-79
2022/06/02 13:59:17;;;;;;;11.48;4.15;;;19.30;99.90;;;;;;5053880;28;20059;-79
2022/06/02 14:02:04;;;;;;;8.23;3.80;;;19.50;99.90;;;;;;5052553;28;20048;-79
2022/06/02 14:04:51;;;;;;;6.90;3.65;;;19.40;99.90;;;;;;5052852;28;20049;-79
2022/06/02 14:07:37;;;;;;;12.20;3.88;;;19.40;99.90;;;;;;5052797;28;20045;-79
2022/06/02 14:10:30;;;;;;;12.15;3.88;;;19.40;99.90;;;;;;5052415;28;20053;-79
2022/06/02 14:13:14;;;;;;;12.88;4.50;;;19.20;99.90;;;;;;5052436;28;20037;-79
2022/06/02 14:15:48;;;;;;;10.23;4.50;;;19.40;99.90;;;;;;5052629;28;20041;-79
2022/06/02 14:18:44;;;;;;;11.98;4.03;;;19.40;99.90;;;;;;5052428;28;20384;-79
2022/06/02 14:21:18;;;;;;;10.98;4.18;;;19.40;99.90;;;;;;5052209;28;20087;-79
2022/06/02 14:24:11;;;;;;;10.38;3.63;;;19.30;99.90;;;;;;5053089;28;20044;-79
2022/06/02 14:26:51;;;;;;;10.65;4.38;;;19.40;99.90;;;;;;5052301;28;20119;-78
2022/06/02 14:29:25;;;;;;;12.57;4.43;;;19.10;99.90;;;;;;5053260;28;20053;-78
2022/06/02 14:32:19;;;;;;;9.55;4.65;;;19.30;99.90;;;;;;5053390;28;20570;-78